Time;durP1;ratioP1;P1;durP2;ratioP2;P2;SDS_P1;SDS_P2;PMS_P1;PMS_P2;Temp;Humidity;BMP_temperature;BMP_pressure;BME280_temperature;BME280_humidity;BME280_pressure;Samples;Min_cycle;Max_cycle;Signal;HPM_P1;HPM_P2
2023/11/17 00:00:00;;;;;;;0.60;0.60;;;;;;;4.56;100.00;96196.78;29395;257;63004;-76
2023/11/17 00:00:31;;;;;;;0.60;0.60;;;;;;;4.58;100.00;96201.91;29395;219;63008;-75
2023/11/17 00:01:03;;;;;;;0.60;0.60;;;;;;;4.56;100.00;96204.03;29395;197;63005;-70
2023/11/17 00:01:35;;;;;;;0.70;0.70;;;;;;;4.55;100.00;96208.62;29395;222;63015;-64
2023/11/17 00:02:06;;;;;;;0.95;0.95;;;;;;;4.55;100.00;96208.62;29395;205;63005;-62
2023/11/17 00:02:37;;;;;;;0.70;0.70;;;;;;;4.57;100.00;96209.16;29394;242;64013;-60
2023/11/17 00:03:09;;;;;;;0.60;0.60;;;;;;;4.60;100.00;96207.81;29395;229;63005;-70
2023/11/17 00:03:40;;;;;;;0.70;0.70;;;;;;;4.60;100.00;96208.59;29395;197;63009;-61
2023/11/17 00:04:13;;;;;;;0.70;0.70;;;;;;;4.62;100.00;96211.84;29395;261;63005;-60
2023/11/17 00:04:44;;;;;;;0.75;0.73;;;;;;;4.64;100.00;96217.75;29395;296;63009;-65
2023/11/17 00:05:15;;;;;;;1.45;1.40;;;;;;;4.58;100.00;96221.50;29395;212;63008;-71
2023/11/17 00:05:47;;;;;;;0.60;0.60;;;;;;;4.50;100.00;96223.97;29395;203;63018;-63
2023/11/17 00:06:19;;;;;;;0.70;0.70;;;;;;;4.52;100.00;96227.97;29395;238;63004;-64
2023/11/17 00:06:50;;;;;;;1.40;1.40;;;;;;;4.54;100.00;96230.38;29395;226;63026;-70
2023/11/17 00:07:21;;;;;;;0.60;0.60;;;;;;;4.53;100.00;96240.31;29395;258;63008;-62
2023/11/17 00:07:54;;;;;;;0.60;0.60;;;;;;;4.50;100.00;96240.88;29394;219;64014;-63
2023/11/17 00:08:28;;;;;;;0.82;0.82;;;;;;;4.52;100.00;96241.38;29395;244;63005;-73
2023/11/17 00:09:01;;;;;;;0.60;0.60;;;;;;;4.54;100.00;96249.19;29395;234;63009;-59
2023/11/17 00:09:32;;;;;;;0.60;0.60;;;;;;;4.55;100.00;96246.22;29395;202;63005;-64
2023/11/17 00:10:04;;;;;;;0.60;0.60;;;;;;;4.57;100.00;96240.59;29395;280;63021;-57
2023/11/17 00:10:36;;;;;;;0.60;0.60;;;;;;;4.57;100.00;96254.81;29395;279;63005;-62
2023/11/17 00:11:11;;;;;;;0.70;0.70;;;;;;;4.54;100.00;96254.56;29395;224;63009;-61
2023/11/17 00:11:42;;;;;;;0.77;0.77;;;;;;;4.53;100.00;96258.31;29395;217;63005;-60
2023/11/17 00:12:14;;;;;;;0.60;0.60;;;;;;;4.50;100.00;96259.69;29395;337;63009;-62
2023/11/17 00:12:45;;;;;;;0.60;0.60;;;;;;;4.48;100.00;96259.16;29395;299;63004;-58
2023/11/17 00:13:16;;;;;;;0.80;0.80;;;;;;;4.48;100.00;96267.22;29394;199;64013;-62
2023/11/17 00:13:51;;;;;;;0.70;0.70;;;;;;;4.48;100.00;96261.84;29395;205;63004;-72
2023/11/17 00:14:22;;;;;;;0.70;0.70;;;;;;;4.50;100.00;96266.94;29394;234;64013;-61
2023/11/17 00:14:53;;;;;;;0.70;0.70;;;;;;;4.44;100.00;96268.81;29395;241;63004;-63
2023/11/17 00:15:24;;;;;;;0.70;0.70;;;;;;;4.41;100.00;96280.09;29395;243;63009;-60
2023/11/17 00:15:55;;;;;;;0.60;0.60;;;;;;;4.38;100.00;96280.63;29395;227;63009;-70
2023/11/17 00:16:27;;;;;;;0.60;0.60;;;;;;;4.32;100.00;96279.81;29395;283;63009;-63
2023/11/17 00:16:58;;;;;;;0.60;0.60;;;;;;;4.32;100.00;96271.75;29395;202;63005;-75
2023/11/17 00:17:29;;;;;;;0.60;0.60;;;;;;;4.31;100.00;96280.09;29395;200;63009;-64
2023/11/17 00:18:01;;;;;;;0.70;0.70;;;;;;;4.35;100.00;96287.34;29395;272;63005;-68
2023/11/17 00:18:34;;;;;;;0.60;0.60;;;;;;;4.35;100.00;96284.66;29395;219;63009;-65
2023/11/17 00:19:08;;;;;;;0.60;0.60;;;;;;;4.36;100.00;96288.97;29395;237;63005;-65
2023/11/17 00:19:40;;;;;;;0.60;0.60;;;;;;;4.37;100.00;96295.13;29394;223;64013;-60
2023/11/17 00:20:12;;;;;;;0.60;0.60;;;;;;;4.35;100.00;96295.41;29395;291;63004;-67
2023/11/17 00:20:44;;;;;;;0.60;0.60;;;;;;;4.41;100.00;96300.78;29395;243;63009;-62
2023/11/17 00:21:15;;;;;;;0.85;0.85;;;;;;;4.45;100.00;96294.59;29395;288;63004;-68
2023/11/17 00:21:47;;;;;;;0.60;0.60;;;;;;;4.42;100.00;96305.09;29395;234;63004;-71
2023/11/17 00:22:20;;;;;;;0.60;0.60;;;;;;;4.38;100.00;96296.75;29395;196;63004;-67
2023/11/17 00:22:51;;;;;;;0.60;0.60;;;;;;;4.39;100.00;96309.09;29395;271;63009;-64
2023/11/17 00:23:22;;;;;;;0.70;0.70;;;;;;;4.39;100.00;96309.09;29394;217;64009;-60
2023/11/17 00:23:54;;;;;;;0.60;0.60;;;;;;;4.35;100.00;96314.19;29395;197;63009;-64
2023/11/17 00:24:26;;;;;;;0.60;0.60;;;;;;;4.34;100.00;96317.97;29395;212;63005;-61
2023/11/17 00:24:58;;;;;;;1.17;1.10;;;;;;;4.40;100.00;96316.09;29395;281;63009;-56
2023/11/17 00:25:31;;;;;;;0.60;0.60;;;;;;;4.44;100.00;96319.06;29395;266;63005;-80
2023/11/17 00:26:04;;;;;;;0.60;0.60;;;;;;;4.41;100.00;96320.37;29395;218;63027;-60
2023/11/17 00:26:35;;;;;;;0.60;0.60;;;;;;;4.34;100.00;96334.06;29395;255;63005;-63
2023/11/17 00:27:06;;;;;;;0.70;0.70;;;;;;;4.32;100.00;96330.03;29395;205;63009;-68
2023/11/17 00:27:37;;;;;;;0.85;0.85;;;;;;;4.32;100.00;96340.78;29395;256;63004;-61
2023/11/17 00:28:10;;;;;;;0.50;0.50;;;;;;;4.25;100.00;96334.84;29395;204;63009;-61
2023/11/17 00:28:42;;;;;;;0.70;0.70;;;;;;;4.25;100.00;96340.22;29394;224;64009;-61
2023/11/17 00:29:13;;;;;;;3.45;3.35;;;;;;;4.28;100.00;96337.81;29394;271;64013;-65
2023/11/17 00:29:44;;;;;;;0.60;0.60;;;;;;;4.27;100.00;96343.47;29395;251;63004;-63
2023/11/17 00:30:17;;;;;;;0.60;0.60;;;;;;;4.18;100.00;96342.34;29394;202;64013;-63
2023/11/17 00:30:50;;;;;;;0.60;0.60;;;;;;;4.18;100.00;96350.41;29394;224;64009;-64
2023/11/17 00:31:21;;;;;;;0.60;0.60;;;;;;;4.17;100.00;96348.81;29395;267;63026;-64
2023/11/17 00:31:52;;;;;;;0.50;0.50;;;;;;;4.15;100.00;96353.66;29395;203;63005;-62
2023/11/17 00:32:23;;;;;;;1.00;1.00;;;;;;;4.23;100.00;96353.13;29395;246;63005;-64
2023/11/17 00:32:55;;;;;;;0.60;0.60;;;;;;;4.24;100.00;96352.84;29395;202;63005;-59
2023/11/17 00:33:26;;;;;;;0.60;0.60;;;;;;;4.26;100.00;96355.28;29395;206;63009;-61
2023/11/17 00:33:58;;;;;;;0.85;0.85;;;;;;;4.24;100.00;96362.78;29395;203;63019;-59
2023/11/17 00:34:29;;;;;;;0.60;0.60;;;;;;;4.21;100.00;96371.38;29395;197;63009;-62
2023/11/17 00:35:00;;;;;;;0.70;0.70;;;;;;;4.25;100.00;96364.41;29395;279;63004;-71
2023/11/17 00:35:32;;;;;;;0.60;0.60;;;;;;;4.24;100.00;96365.47;29395;226;63009;-64
2023/11/17 00:36:04;;;;;;;1.12;1.12;;;;;;;4.22;100.00;96370.28;29394;311;64009;-62
2023/11/17 00:36:36;;;;;;;0.60;0.60;;;;;;;4.22;100.00;96378.34;29395;243;63009;-68
2023/11/17 00:37:07;;;;;;;0.60;0.60;;;;;;;4.16;100.00;96382.13;29394;219;64008;-66
2023/11/17 00:37:39;;;;;;;0.60;0.60;;;;;;;4.13;100.00;96374.59;29394;286;64013;-62
2023/11/17 00:38:10;;;;;;;0.70;0.70;;;;;;;4.17;100.00;96383.72;29395;230;63005;-62
2023/11/17 00:38:41;;;;;;;0.60;0.60;;;;;;;4.21;100.00;96382.09;29395;231;63009;-62
2023/11/17 00:39:16;;;;;;;0.60;0.60;;;;;;;4.25;100.00;96391.25;29395;249;63005;-62
2023/11/17 00:39:47;;;;;;;0.60;0.60;;;;;;;4.16;100.00;96390.19;29395;218;63009;-61
2023/11/17 00:40:21;;;;;;;0.60;0.60;;;;;;;4.16;100.00;96396.31;29395;252;63005;-63
2023/11/17 00:40:52;;;;;;;0.60;0.60;;;;;;;4.19;100.00;96395.81;29395;251;63009;-60
2023/11/17 00:41:23;;;;;;;0.60;0.60;;;;;;;4.18;100.00;96399.56;29395;238;63005;-61
2023/11/17 00:41:58;;;;;;;0.60;0.60;;;;;;;4.19;100.00;96411.09;29395;202;63005;-68
2023/11/17 00:42:29;;;;;;;0.60;0.60;;;;;;;4.16;100.00;96406.28;29394;202;64009;-61
2023/11/17 00:43:01;;;;;;;1.23;0.93;;;;;;;4.19;100.00;96401.16;29395;219;63009;-66
2023/11/17 00:43:32;;;;;;;0.52;0.52;;;;;;;4.21;100.00;96408.97;29395;211;63018;-59
2023/11/17 00:44:04;;;;;;;0.55;0.55;;;;;;;4.18;100.00;96398.75;29395;262;63012;-61
2023/11/17 00:44:35;;;;;;;0.60;0.60;;;;;;;4.14;100.00;96405.75;29395;197;63007;-66
2023/11/17 00:45:08;;;;;;;0.60;0.60;;;;;;;4.11;100.00;96409.75;29394;235;64013;-61
2023/11/17 00:45:40;;;;;;;0.60;0.60;;;;;;;4.04;100.00;96406.50;29395;206;63013;-60
2023/11/17 00:46:11;;;;;;;0.60;0.60;;;;;;;4.02;100.00;96412.13;29395;237;63009;-61
2023/11/17 00:46:42;;;;;;;0.60;0.60;;;;;;;4.10;100.00;96418.06;29394;214;64009;-63
2023/11/17 00:47:15;;;;;;;0.60;0.60;;;;;;;4.12;100.00;96416.75;29395;231;63009;-63
2023/11/17 00:47:46;;;;;;;0.60;0.60;;;;;;;4.13;100.00;96422.91;29395;252;63008;-58
2023/11/17 00:48:18;;;;;;;0.60;0.60;;;;;;;4.20;100.00;96424.28;29395;208;63009;-63
2023/11/17 00:48:49;;;;;;;0.50;0.50;;;;;;;4.24;100.00;96424.56;29395;202;63005;-59
2023/11/17 00:49:20;;;;;;;0.60;0.60;;;;;;;4.25;100.00;96426.97;29395;287;63009;-58
2023/11/17 00:49:51;;;;;;;0.60;0.60;;;;;;;4.20;100.00;96423.47;29395;204;63016;-60
2023/11/17 00:50:23;;;;;;;0.60;0.60;;;;;;;4.17;100.00;96429.34;29395;288;63009;-63
2023/11/17 00:50:56;;;;;;;0.60;0.60;;;;;;;4.11;100.00;96435.81;29395;246;63004;-67
2023/11/17 00:51:29;;;;;;;0.60;0.60;;;;;;;4.13;100.00;96434.47;29395;221;63009;-60
2023/11/17 00:52:04;;;;;;;0.60;0.60;;;;;;;4.13;100.00;96428.28;29394;273;64009;-63
2023/11/17 00:52:36;;;;;;;0.60;0.60;;;;;;;4.10;100.00;96429.62;29394;233;64013;-62
2023/11/17 00:53:11;;;;;;;0.70;0.70;;;;;;;4.08;100.00;96437.12;29395;226;63005;-66
2023/11/17 00:53:42;;;;;;;0.60;0.60;;;;;;;4.07;100.00;96429.34;29395;204;63009;-60
2023/11/17 00:54:14;;;;;;;0.80;0.80;;;;;;;4.08;100.00;96441.69;29395;204;63005;-61
2023/11/17 00:54:47;;;;;;;0.60;0.60;;;;;;;4.11;100.00;96452.72;29395;222;63020;-64
2023/11/17 00:55:21;;;;;;;0.60;0.60;;;;;;;4.13;100.00;96441.72;29395;218;63009;-67
2023/11/17 00:55:53;;;;;;;0.60;0.60;;;;;;;4.17;100.00;96450.84;29395;217;63009;-61
2023/11/17 00:56:24;;;;;;;0.60;0.60;;;;;;;4.16;100.00;96450.03;29395;203;63005;-62
2023/11/17 00:56:56;;;;;;;0.60;0.60;;;;;;;4.13;100.00;96450.59;29395;203;63009;-61
2023/11/17 00:57:29;;;;;;;0.60;0.60;;;;;;;4.02;100.00;96455.09;29395;226;63004;-62
2023/11/17 00:58:01;;;;;;;0.60;0.60;;;;;;;4.01;100.00;96448.09;29394;210;64013;-59
2023/11/17 00:58:33;;;;;;;0.60;0.60;;;;;;;3.98;100.00;96454.00;29395;209;63004;-62
2023/11/17 00:59:11;;;;;;;0.60;0.60;;;;;;;3.99;100.00;96454.81;29395;203;63009;-58
2023/11/17 00:59:42;;;;;;;0.60;0.60;;;;;;;3.99;100.00;96458.28;29395;291;63004;-62
2023/11/17 01:00:14;;;;;;;0.60;0.60;;;;;;;4.02;100.00;96471.19;29395;233;63008;-61
2023/11/17 01:00:46;;;;;;;0.60;0.60;;;;;;;4.10;100.00;96464.53;29395;202;63005;-61
2023/11/17 01:01:17;;;;;;;0.60;0.60;;;;;;;4.10;100.00;96469.09;29395;221;63009;-61
2023/11/17 01:01:49;;;;;;;0.60;0.60;;;;;;;4.04;100.00;96479.00;29395;297;63005;-62
2023/11/17 01:02:20;;;;;;;0.60;0.60;;;;;;;4.08;100.00;96476.59;29395;236;63009;-57
2023/11/17 01:02:52;;;;;;;0.60;0.60;;;;;;;3.98;100.00;96475.47;29395;235;63005;-61
2023/11/17 01:03:24;;;;;;;0.60;0.60;;;;;;;4.00;100.00;96476.03;29394;257;64013;-58
2023/11/17 01:03:56;;;;;;;0.60;0.60;;;;;;;3.99;100.00;96482.44;29395;206;63004;-62
2023/11/17 01:04:27;;;;;;;0.60;0.60;;;;;;;3.94;100.00;96490.47;29395;226;63009;-65
2023/11/17 01:04:58;;;;;;;0.60;0.60;;;;;;;3.97;100.00;96487.28;29395;198;63008;-68
2023/11/17 01:05:30;;;;;;;0.77;0.77;;;;;;;3.98;100.00;96502.31;29395;238;63009;-63
2023/11/17 01:06:02;;;;;;;0.60;0.60;;;;;;;4.00;100.00;96500.19;29394;208;64004;-63
2023/11/17 01:06:33;;;;;;;0.60;0.60;;;;;;;3.98;100.00;96502.31;29395;219;63013;-61
2023/11/17 01:07:05;;;;;;;0.62;0.62;;;;;;;4.03;100.00;96510.41;29395;249;63011;-55
2023/11/17 01:07:36;;;;;;;0.60;0.60;;;;;;;4.06;100.00;96492.16;29395;212;63008;-64
2023/11/17 01:08:07;;;;;;;0.60;0.60;;;;;;;4.08;100.00;96501.56;29395;196;63005;-63
2023/11/17 01:08:39;;;;;;;0.60;0.60;;;;;;;4.01;100.00;96506.34;29394;233;64014;-63
2023/11/17 01:09:10;;;;;;;0.80;0.80;;;;;;;4.01;100.00;96507.16;29395;276;63005;-62
2023/11/17 01:09:43;;;;;;;0.80;0.80;;;;;;;4.06;100.00;96508.25;29395;216;63009;-68
2023/11/17 01:10:15;;;;;;;0.70;0.70;;;;;;;4.12;100.00;96501.84;29395;206;63005;-64
2023/11/17 01:10:48;;;;;;;0.90;0.90;;;;;;;4.11;100.00;96519.03;29394;210;64013;-67
2023/11/17 01:11:19;;;;;;;0.70;0.70;;;;;;;4.09;100.00;96518.47;29395;221;63005;-60
2023/11/17 01:11:51;;;;;;;0.60;0.60;;;;;;;4.08;100.00;96516.88;29395;280;63009;-62
2023/11/17 01:12:26;;;;;;;0.60;0.60;;;;;;;4.04;100.00;96533.50;29395;271;63010;-63
2023/11/17 01:13:00;;;;;;;0.60;0.60;;;;;;;4.07;100.00;96528.69;29395;220;63016;-58
2023/11/17 01:13:32;;;;;;;0.60;0.60;;;;;;;4.01;100.00;96523.28;29395;215;63004;-63
2023/11/17 01:14:05;;;;;;;0.60;0.60;;;;;;;3.97;100.00;96527.53;29395;197;63008;-60
2023/11/17 01:14:36;;;;;;;0.60;0.60;;;;;;;3.96;100.00;96528.59;29395;273;63004;-68
2023/11/17 01:15:10;;;;;;;0.60;0.60;;;;;;;3.98;100.00;96529.16;29395;264;63009;-64
2023/11/17 01:15:41;;;;;;;0.60;0.60;;;;;;;3.99;100.00;96536.12;29395;203;63005;-61
2023/11/17 01:16:16;;;;;;;0.60;0.60;;;;;;;4.02;100.00;96537.50;29394;220;64014;-74
2023/11/17 01:16:48;;;;;;;0.60;0.60;;;;;;;4.00;100.00;96537.75;29395;286;63005;-71
2023/11/17 01:17:19;;;;;;;0.60;0.60;;;;;;;4.02;100.00;96543.69;29395;270;63009;-65
2023/11/17 01:17:51;;;;;;;0.60;0.60;;;;;;;4.03;100.00;96537.25;29395;198;63005;-60
2023/11/17 01:18:22;;;;;;;0.60;0.60;;;;;;;4.01;100.00;96539.38;29395;244;63009;-62
2023/11/17 01:18:53;;;;;;;2.55;1.50;;;;;;;4.02;100.00;96550.94;29395;202;63005;-64
2023/11/17 01:19:25;;;;;;;0.75;0.75;;;;;;;3.98;100.00;96539.09;29395;240;63022;-63
2023/11/17 01:19:56;;;;;;;0.60;0.60;;;;;;;3.90;100.00;96540.37;29395;214;63004;-64
2023/11/17 01:20:28;;;;;;;0.52;0.52;;;;;;;3.90;100.00;96543.06;29394;264;64013;-63
2023/11/17 01:20:59;;;;;;;0.60;0.60;;;;;;;3.86;100.00;96546.50;29395;208;63004;-66
2023/11/17 01:21:32;;;;;;;2.10;1.87;;;;;;;3.83;100.00;96547.84;29395;205;63009;-61
2023/11/17 01:22:06;;;;;;;0.82;0.82;;;;;;;3.85;100.00;96547.59;29395;268;63004;-59
2023/11/17 01:22:37;;;;;;;0.60;0.60;;;;;;;3.86;100.00;96544.62;29395;197;63027;-64
2023/11/17 01:23:09;;;;;;;0.60;0.60;;;;;;;3.90;100.00;96551.13;29395;197;63005;-64
2023/11/17 01:23:40;;;;;;;0.60;0.60;;;;;;;3.91;100.00;96550.03;29395;223;63009;-60
2023/11/17 01:24:11;;;;;;;0.60;0.60;;;;;;;3.87;100.00;96553.50;29395;224;63005;-61
2023/11/17 01:24:42;;;;;;;0.60;0.60;;;;;;;3.88;100.00;96555.94;29394;235;64013;-62
2023/11/17 01:25:13;;;;;;;0.55;0.55;;;;;;;3.83;100.00;96550.53;29394;240;64009;-63
2023/11/17 01:25:45;;;;;;;0.60;0.60;;;;;;;3.80;100.00;96561.81;29395;208;63009;-63
2023/11/17 01:26:17;;;;;;;0.60;0.60;;;;;;;3.81;100.00;96563.37;29395;205;63005;-62
2023/11/17 01:26:49;;;;;;;0.60;0.60;;;;;;;3.78;100.00;96561.25;29394;209;64013;-61
2023/11/17 01:27:20;;;;;;;0.60;0.60;;;;;;;3.76;100.00;96568.75;29395;286;63004;-63
2023/11/17 01:27:51;;;;;;;0.60;0.60;;;;;;;3.71;100.00;96576.75;29395;260;63009;-56
2023/11/17 01:28:23;;;;;;;0.60;0.60;;;;;;;3.73;100.00;96563.06;29395;213;63014;-62
2023/11/17 01:28:55;;;;;;;0.70;0.70;;;;;;;3.78;100.00;96580.03;29395;241;63009;-62
2023/11/17 01:29:26;;;;;;;0.60;0.60;;;;;;;3.81;100.00;96581.41;29395;248;63004;-62
2023/11/17 01:29:58;;;;;;;0.60;0.60;;;;;;;3.80;100.00;96585.94;29395;223;63009;-60
2023/11/17 01:30:31;;;;;;;0.60;0.60;;;;;;;3.84;100.00;96576.28;29394;205;64009;-63
2023/11/17 01:31:04;;;;;;;0.60;0.60;;;;;;;3.81;100.00;96587.53;29395;250;63009;-61
2023/11/17 01:31:35;;;;;;;0.60;0.60;;;;;;;3.82;100.00;96581.09;29395;268;63019;-62
2023/11/17 01:32:07;;;;;;;0.60;0.60;;;;;;;3.89;100.00;96589.75;29395;241;63013;-63
2023/11/17 01:32:38;;;;;;;0.70;0.70;;;;;;;3.99;100.00;96595.19;29395;199;63005;-62
2023/11/17 01:33:09;;;;;;;0.60;0.60;;;;;;;4.04;100.00;96589.88;29394;198;64013;-64
2023/11/17 01:33:41;;;;;;;0.60;0.60;;;;;;;4.01;100.00;96590.38;29395;209;63005;-64
2023/11/17 01:34:12;;;;;;;0.60;0.60;;;;;;;3.98;100.00;96588.22;29395;222;63009;-63
2023/11/17 01:34:44;;;;;;;0.57;0.57;;;;;;;3.96;100.00;96590.34;29395;290;63004;-61
2023/11/17 01:35:16;;;;;;;0.70;0.70;;;;;;;3.96;100.00;96595.72;29395;290;63009;-61
2023/11/17 01:35:48;;;;;;;0.60;0.60;;;;;;;3.94;100.00;96595.16;29395;239;63003;-59
2023/11/17 01:36:20;;;;;;;0.60;0.60;;;;;;;3.91;100.00;96593.00;29395;267;63016;-63
2023/11/17 01:36:51;;;;;;;0.60;0.60;;;;;;;3.92;100.00;96605.34;29395;292;63004;-68
2023/11/17 01:37:26;;;;;;;0.60;0.60;;;;;;;3.91;100.00;96592.19;29394;284;64013;-66
2023/11/17 01:37:58;;;;;;;3.00;1.77;;;;;;;3.89;100.00;96600.50;29395;217;63005;-64
2023/11/17 01:38:32;;;;;;;0.60;0.60;;;;;;;3.90;100.00;96612.84;29395;289;63009;-67
2023/11/17 01:39:03;;;;;;;0.65;0.65;;;;;;;3.92;100.00;96610.72;29395;283;63005;-62
2023/11/17 01:39:35;;;;;;;0.60;0.60;;;;;;;3.92;100.00;96605.34;29395;210;63009;-63
2023/11/17 01:40:08;;;;;;;0.60;0.60;;;;;;;3.85;100.00;96604.75;29395;200;63005;-65
2023/11/17 01:40:39;;;;;;;0.80;0.80;;;;;;;3.80;100.00;96609.28;29395;224;63009;-64
2023/11/17 01:41:10;;;;;;;0.60;0.60;;;;;;;3.77;100.00;96613.31;29395;203;63005;-64
2023/11/17 01:41:42;;;;;;;0.60;0.60;;;;;;;3.78;100.00;96619.47;29395;241;63009;-70
2023/11/17 01:42:13;;;;;;;0.60;0.60;;;;;;;3.89;100.00;96615.78;29395;208;63000;-71
2023/11/17 01:42:45;;;;;;;0.60;0.60;;;;;;;3.93;100.00;96623.06;29394;274;64013;-62
2023/11/17 01:43:17;;;;;;;0.70;0.70;;;;;;;3.93;100.00;96617.69;29395;284;63004;-64
2023/11/17 01:43:48;;;;;;;0.60;0.60;;;;;;;3.92;100.00;96623.31;29395;204;63009;-64
2023/11/17 01:44:21;;;;;;;0.60;0.60;;;;;;;3.90;100.00;96628.94;29395;201;63004;-71
2023/11/17 01:44:52;;;;;;;0.60;0.60;;;;;;;3.96;100.00;96627.94;29395;292;63008;-57
2023/11/17 01:45:23;;;;;;;0.60;0.60;;;;;;;4.02;100.00;96626.09;29395;215;63005;-64
2023/11/17 01:45:55;;;;;;;0.60;0.60;;;;;;;4.00;100.00;96633.59;29395;220;63009;-66
2023/11/17 01:46:26;;;;;;;0.60;0.60;;;;;;;3.97;100.00;96618.81;29395;216;63005;-55
2023/11/17 01:46:58;;;;;;;0.60;0.60;;;;;;;3.92;100.00;96618.75;29395;225;63009;-65
2023/11/17 01:47:30;;;;;;;0.60;0.60;;;;;;;3.91;100.00;96635.13;29395;235;63005;-61
2023/11/17 01:48:02;;;;;;;0.60;0.60;;;;;;;3.89;100.00;96635.38;29394;223;64013;-62
2023/11/17 01:48:34;;;;;;;0.65;0.65;;;;;;;3.94;100.00;96638.09;29395;202;63005;-63
2023/11/17 01:49:12;;;;;;;0.60;0.60;;;;;;;3.95;100.00;96634.38;29395;222;63009;-72
2023/11/17 01:49:44;;;;;;;0.60;0.60;;;;;;;3.91;100.00;96635.94;29395;216;63004;-64
2023/11/17 01:50:16;;;;;;;0.60;0.60;;;;;;;3.93;100.00;96644.53;29394;205;64013;-63
2023/11/17 01:50:48;;;;;;;0.60;0.60;;;;;;;3.94;100.00;96645.34;29395;196;63004;-68
2023/11/17 01:51:19;;;;;;;0.60;0.60;;;;;;;3.90;100.00;96637.00;29395;266;63022;-64
2023/11/17 01:51:52;;;;;;;0.60;0.60;;;;;;;3.88;100.00;96646.38;29395;214;63004;-61
2023/11/17 01:52:25;;;;;;;0.60;0.60;;;;;;;3.89;100.00;96643.44;29395;243;63008;-69
2023/11/17 01:52:57;;;;;;;0.60;0.60;;;;;;;3.91;100.00;96644.00;29395;287;63009;-58
2023/11/17 01:53:28;;;;;;;0.62;0.62;;;;;;;3.99;100.00;96640.84;29395;216;63009;-63
2023/11/17 01:54:00;;;;;;;0.60;0.60;;;;;;;3.97;100.00;96644.84;29395;199;63005;-62
2023/11/17 01:54:32;;;;;;;0.60;0.60;;;;;;;3.95;100.00;96645.09;29395;197;63009;-61
2023/11/17 01:55:08;;;;;;;0.68;0.68;;;;;;;3.93;100.00;96644.53;29395;212;63005;-65
2023/11/17 01:55:40;;;;;;;0.60;0.60;;;;;;;3.99;100.00;96648.91;29394;221;64013;-69
2023/11/17 01:56:12;;;;;;;0.60;0.60;;;;;;;4.01;100.00;96640.59;29395;260;63005;-72
2023/11/17 01:56:43;;;;;;;0.60;0.60;;;;;;;3.99;100.00;96651.56;29395;218;63009;-68
2023/11/17 01:57:14;;;;;;;0.60;0.60;;;;;;;4.03;100.00;96650.00;29395;203;63004;-62
2023/11/17 01:57:46;;;;;;;0.60;0.60;;;;;;;3.98;100.00;96652.66;29394;221;64013;-64
2023/11/17 01:58:17;;;;;;;0.60;0.60;;;;;;;3.99;100.00;96654.25;29395;260;63004;-66
2023/11/17 01:58:50;;;;;;;0.60;0.60;;;;;;;3.95;100.00;96660.41;29396;259;63009;-57
2023/11/17 01:59:21;;;;;;;0.60;0.60;;;;;;;3.87;100.00;96660.84;29396;284;63004;-63
2023/11/17 01:59:52;;;;;;;0.60;0.60;;;;;;;3.84;100.00;96659.50;29396;198;63015;-66
2023/11/17 02:00:23;;;;;;;0.60;0.60;;;;;;;3.84;100.00;96667.53;29395;215;63005;-63
2023/11/17 02:00:55;;;;;;;0.60;0.60;;;;;;;3.87;100.00;96664.34;29396;269;63009;-61
2023/11/17 02:01:27;;;;;;;0.60;0.60;;;;;;;3.88;100.00;96667.84;29396;285;63005;-65
2023/11/17 02:01:58;;;;;;;0.60;0.60;;;;;;;3.97;100.00;96664.44;29396;233;63023;-61
2023/11/17 02:02:30;;;;;;;0.60;0.60;;;;;;;4.02;100.00;96663.69;29396;222;63005;-60
2023/11/17 02:03:03;;;;;;;0.77;0.77;;;;;;;4.02;100.00;96672.53;29395;208;64004;-63
2023/11/17 02:03:39;;;;;;;0.60;0.60;;;;;;;3.95;100.00;96674.62;29396;220;63005;-66
2023/11/17 02:04:10;;;;;;;0.60;0.60;;;;;;;3.92;100.00;96677.00;29396;263;63009;-65
2023/11/17 02:04:42;;;;;;;0.60;0.60;;;;;;;3.88;100.00;96683.94;29396;204;63007;-56
2023/11/17 02:05:16;;;;;;;0.75;0.75;;;;;;;3.93;100.00;96676.75;29395;207;64013;-62
2023/11/17 02:05:52;;;;;;;0.60;0.60;;;;;;;3.94;100.00;96675.69;29396;253;63004;-64
2023/11/17 02:07:07;;;;;;;0.60;0.60;;;;;;;3.97;100.00;96680.56;29396;223;63009;-64
2023/11/17 02:08:00;;;;;;;0.60;0.60;;;;;;;3.89;100.00;96675.66;29396;240;63004;-62
2023/11/17 02:08:46;;;;;;;0.65;0.65;;;;;;;3.95;100.00;96682.69;29395;232;64014;-62
2023/11/17 02:09:55;;;;;;;0.60;0.60;;;;;;;3.93;100.00;96689.38;29396;211;63018;-64
2023/11/17 02:10:45;;;;;;;0.60;0.60;;;;;;;3.95;100.00;96695.28;29396;240;63014;-60
2023/11/17 02:11:41;;;;;;;0.70;0.70;;;;;;;3.94;100.00;96691.81;29440;253;63011;-60
2023/11/17 02:12:59;;;;;;;0.70;0.70;;;;;;;3.92;100.00;96704.66;29374;255;63009;-62
2023/11/17 02:14:07;;;;;;;0.60;0.60;;;;;;;3.94;100.00;96707.09;29396;249;63004;-63
2023/11/17 02:14:42;;;;;;;0.68;0.68;;;;;;;3.94;100.00;96705.22;29395;309;64013;-65
2023/11/17 02:15:17;;;;;;;0.88;0.88;;;;;;;3.92;100.00;96711.91;29395;239;64009;-60
2023/11/17 02:15:50;;;;;;;0.60;0.60;;;;;;;3.99;100.00;96701.78;29396;260;63009;-69
2023/11/17 02:16:24;;;;;;;5.87;1.45;;;;;;;4.00;100.00;96701.53;29395;208;64009;-63
2023/11/17 02:17:00;;;;;;;0.60;0.60;;;;;;;3.92;100.00;96701.97;29396;203;63009;-62
2023/11/17 02:17:34;;;;;;;0.60;0.60;;;;;;;3.89;100.00;96715.91;29396;251;63005;-61
2023/11/17 02:18:11;;;;;;;0.60;0.60;;;;;;;3.94;100.00;96699.84;29396;235;63009;-65
2023/11/17 02:18:49;;;;;;;0.60;0.60;;;;;;;3.95;100.00;96700.66;29396;202;63004;-62
2023/11/17 02:19:37;;;;;;;0.70;0.70;;;;;;;3.97;100.00;96707.41;29395;228;64013;-62
2023/11/17 02:20:19;;;;;;;0.60;0.60;;;;;;;3.99;100.00;96707.16;29396;196;63004;-61
2023/11/17 02:20:52;;;;;;;0.82;0.82;;;;;;;4.03;100.00;96714.44;29396;202;63009;-61
2023/11/17 02:21:31;;;;;;;0.60;0.60;;;;;;;4.01;100.00;96708.50;29395;237;64008;-61
2023/11/17 02:22:08;;;;;;;0.60;0.60;;;;;;;4.03;100.00;96709.06;29396;249;63009;-60
2023/11/17 02:22:47;;;;;;;0.70;0.70;;;;;;;4.03;100.00;96714.44;29417;237;64009;-60
2023/11/17 02:23:21;;;;;;;0.60;0.60;;;;;;;3.97;100.00;96710.09;29396;199;63009;-60
2023/11/17 02:23:53;;;;;;;0.60;0.60;;;;;;;3.95;100.00;96714.91;29396;229;63009;-59
2023/11/17 02:24:31;;;;;;;0.62;0.62;;;;;;;3.96;100.00;96713.84;29396;301;63009;-63
2023/11/17 02:25:34;;;;;;;0.60;0.60;;;;;;;3.91;100.00;96715.66;29396;212;63005;-61
2023/11/17 02:26:46;;;;;;;0.60;0.60;;;;;;;4.01;100.00;96716.56;29396;259;63005;-63
2023/11/17 02:27:40;;;;;;;0.60;0.60;;;;;;;3.98;100.00;96717.06;29418;222;63009;-63
2023/11/17 02:28:41;;;;;;;0.60;0.60;;;;;;;3.92;100.00;96722.66;29395;229;64009;-59
2023/11/17 02:29:37;;;;;;;0.65;0.65;;;;;;;3.92;100.00;96722.66;29396;216;63019;-61
2023/11/17 02:30:10;;;;;;;0.70;0.70;;;;;;;3.94;100.00;96732.06;29396;217;63005;-61
2023/11/17 02:30:42;;;;;;;0.60;0.60;;;;;;;4.01;100.00;96724.63;29396;198;63009;-64
2023/11/17 02:31:18;;;;;;;0.60;0.60;;;;;;;4.03;100.00;96727.84;29396;208;63005;-60
2023/11/17 02:31:52;;;;;;;0.60;0.60;;;;;;;3.99;100.00;96725.94;29396;245;63009;-60
2023/11/17 02:32:24;;;;;;;0.60;0.60;;;;;;;3.95;100.00;96733.69;29396;203;63005;-59
2023/11/17 02:32:59;;;;;;;0.60;0.60;;;;;;;3.96;100.00;96729.94;29396;257;63009;-62
2023/11/17 02:33:32;;;;;;;0.60;0.60;;;;;;;4.01;100.00;96734.53;29395;254;64009;-63
2023/11/17 02:34:08;;;;;;;0.60;0.60;;;;;;;4.01;100.00;96732.66;29396;256;63009;-64
2023/11/17 02:34:42;;;;;;;0.60;0.60;;;;;;;3.99;100.00;96728.63;29396;209;63014;-62
2023/11/17 02:35:15;;;;;;;0.60;0.60;;;;;;;3.96;100.00;96729.13;29396;223;63021;-60
2023/11/17 02:35:49;;;;;;;0.60;0.60;;;;;;;3.96;100.00;96732.63;29396;236;63004;-59
2023/11/17 02:36:20;;;;;;;0.60;0.60;;;;;;;3.93;100.00;96735.81;29396;279;63020;-64
2023/11/17 02:36:53;;;;;;;0.60;0.60;;;;;;;3.90;100.00;96736.31;29396;255;63007;-57
2023/11/17 02:37:25;;;;;;;0.60;0.60;;;;;;;3.91;100.00;96737.13;29396;209;63009;-59
2023/11/17 02:38:01;;;;;;;0.60;0.60;;;;;;;3.85;100.00;96733.59;29396;264;63005;-57
2023/11/17 02:38:32;;;;;;;0.60;0.60;;;;;;;3.87;100.00;96741.38;29395;241;64014;-61
2023/11/17 02:39:13;;;;;;;0.60;0.60;;;;;;;3.85;100.00;96744.31;29396;197;63005;-60
2023/11/17 02:39:45;;;;;;;0.60;0.60;;;;;;;3.88;100.00;96743.00;29417;257;64013;-61
2023/11/17 02:40:20;;;;;;;0.60;0.60;;;;;;;3.87;100.00;96739.50;29395;203;64009;-59